Time;durP1;ratioP1;P1;durP2;ratioP2;P2;SDS_P1;SDS_P2;PMS_P1;PMS_P2;Temp;Humidity;BMP_temperature;BMP_pressure;BME280_temperature;BME280_humidity;BME280_pressure;Samples;Min_cycle;Max_cycle;Signal;HPM_P1;HPM_P2
2022/03/23 00:01:12;;;;;;;24.90;10.70;;;7.60;99.90;;;;;;5091218;28;20032;-76
2022/03/23 00:03:37;;;;;;;29.35;10.43;;;7.60;99.90;;;;;;5075710;28;20029;-75
2022/03/23 00:06:04;;;;;;;24.95;10.68;;;7.60;99.90;;;;;;5076184;28;20055;-75
2022/03/23 00:08:30;;;;;;;23.30;10.73;;;7.60;99.90;;;;;;5075624;28;20029;-76
2022/03/23 00:10:56;;;;;;;25.50;11.27;;;7.60;99.90;;;;;;5076214;28;20446;-76
2022/03/23 00:13:22;;;;;;;25.65;9.90;;;7.60;99.90;;;;;;5074438;28;20111;-76
2022/03/23 00:15:47;;;;;;;28.25;11.15;;;7.50;99.90;;;;;;5084455;28;20063;-76
2022/03/23 00:18:13;;;;;;;23.40;10.30;;;7.50;99.90;;;;;;5075545;28;20032;-76
2022/03/23 00:20:40;;;;;;;22.33;9.98;;;7.40;99.90;;;;;;5075404;28;20316;-76
2022/03/23 00:23:09;;;;;;;26.20;10.85;;;7.40;99.90;;;;;;5083962;28;20020;-76
2022/03/23 00:25:36;;;;;;;22.25;9.45;;;7.30;99.90;;;;;;5096041;28;20457;-76
2022/03/23 00:28:03;;;;;;;23.63;9.77;;;7.30;99.90;;;;;;5095742;28;20020;-76
2022/03/23 00:30:29;;;;;;;22.52;10.02;;;7.20;99.90;;;;;;5095420;28;20472;-75
2022/03/23 00:32:55;;;;;;;27.52;12.18;;;7.20;99.90;;;;;;5087069;28;20052;-76
2022/03/23 00:35:22;;;;;;;29.70;10.80;;;7.20;99.90;;;;;;5075657;28;20077;-75
2022/03/23 00:37:48;;;;;;;25.52;10.50;;;7.10;99.90;;;;;;5075050;28;20020;-76
2022/03/23 00:40:14;;;;;;;29.20;10.88;;;7.00;99.90;;;;;;5074952;28;20024;-75
2022/03/23 00:42:40;;;;;;;24.23;11.32;;;7.00;99.90;;;;;;5079688;28;20022;-75
2022/03/23 00:45:06;;;;;;;23.42;10.80;;;7.00;99.90;;;;;;5095854;28;20038;-76
2022/03/23 00:47:31;;;;;;;17.67;9.60;;;7.00;99.90;;;;;;5095443;28;20027;-76
2022/03/23 00:49:57;;;;;;;23.83;10.50;;;7.00;99.90;;;;;;5093723;28;20024;-76
2022/03/23 00:52:23;;;;;;;25.23;10.45;;;6.90;99.90;;;;;;5094794;28;20393;-76
2022/03/23 00:54:49;;;;;;;28.40;11.13;;;6.90;99.90;;;;;;5093730;28;20034;-76
2022/03/23 00:57:14;;;;;;;25.40;11.93;;;6.90;99.90;;;;;;5093664;28;20481;-76
2022/03/23 00:59:40;;;;;;;28.05;11.07;;;6.80;99.90;;;;;;5093561;28;20069;-76
2022/03/23 01:02:05;;;;;;;24.45;11.13;;;6.80;99.90;;;;;;5095393;28;20107;-76
2022/03/23 01:04:31;;;;;;;29.30;11.73;;;6.80;99.90;;;;;;5075435;28;20473;-76
2022/03/23 01:06:58;;;;;;;30.40;12.88;;;6.70;99.90;;;;;;5074712;28;20028;-76
2022/03/23 01:09:25;;;;;;;39.70;12.73;;;6.70;99.90;;;;;;5074327;28;20401;-76
2022/03/23 01:11:51;;;;;;;33.17;11.68;;;6.60;99.90;;;;;;5074438;28;20024;-76
2022/03/23 01:14:18;;;;;;;28.85;11.52;;;6.60;99.90;;;;;;5074820;28;20143;-76
2022/03/23 01:16:44;;;;;;;29.05;11.70;;;6.60;99.90;;;;;;5073986;28;20500;-76
2022/03/23 01:19:10;;;;;;;25.90;12.30;;;6.50;99.90;;;;;;5073769;28;20109;-75
2022/03/23 01:21:36;;;;;;;32.13;11.82;;;6.50;99.90;;;;;;5072986;28;20047;-76
2022/03/23 01:24:02;;;;;;;26.52;10.38;;;6.40;99.90;;;;;;5074192;28;20067;-76
2022/03/23 01:26:28;;;;;;;26.70;10.98;;;6.40;99.90;;;;;;5074331;28;20025;-77
2022/03/23 01:28:54;;;;;;;29.35;10.85;;;6.30;99.90;;;;;;5074405;28;20024;-76
2022/03/23 01:31:20;;;;;;;30.95;11.70;;;6.30;99.90;;;;;;5072681;28;20029;-76
2022/03/23 01:33:46;;;;;;;29.33;10.45;;;6.20;99.90;;;;;;5074121;28;20367;-76
2022/03/23 01:36:11;;;;;;;26.20;10.70;;;6.20;99.90;;;;;;5072961;28;20024;-76
2022/03/23 01:38:37;;;;;;;24.92;10.18;;;6.30;99.90;;;;;;5073849;28;20028;-76
2022/03/23 01:41:03;;;;;;;29.70;10.15;;;6.10;99.90;;;;;;5072695;28;20051;-76
2022/03/23 01:43:29;;;;;;;24.30;10.70;;;6.00;99.90;;;;;;5073779;28;20478;-76
2022/03/23 01:45:55;;;;;;;33.42;11.18;;;6.00;99.90;;;;;;5073671;28;20020;-76
2022/03/23 01:48:21;;;;;;;33.95;10.32;;;5.90;99.90;;;;;;5073789;28;20036;-75
2022/03/23 01:50:46;;;;;;;25.48;10.77;;;5.80;99.90;;;;;;5073702;28;20055;-75
2022/03/23 01:53:12;;;;;;;23.50;9.40;;;5.80;99.90;;;;;;5078464;28;20055;-75
2022/03/23 01:55:38;;;;;;;27.13;10.20;;;5.80;99.90;;;;;;5092603;28;20032;-76
2022/03/23 01:58:04;;;;;;;25.10;10.25;;;5.70;99.90;;;;;;5093775;28;20031;-75
2022/03/23 02:00:30;;;;;;;24.23;9.27;;;5.70;99.90;;;;;;5093825;28;20492;-76
2022/03/23 02:02:57;;;;;;;23.77;10.23;;;5.60;99.90;;;;;;5093780;28;20020;-75
2022/03/23 02:05:22;;;;;;;31.92;11.05;;;5.60;99.90;;;;;;5073855;28;20027;-76
2022/03/23 02:07:48;;;;;;;29.77;10.20;;;5.60;99.90;;;;;;5073378;28;20450;-76
2022/03/23 02:10:14;;;;;;;27.98;9.27;;;5.50;99.90;;;;;;5073465;28;20032;-75
2022/03/23 02:12:40;;;;;;;22.77;10.63;;;5.50;99.90;;;;;;5073462;28;20544;-75
2022/03/23 02:15:16;;;;;;;21.73;10.00;;;5.40;99.90;;;;;;5084930;28;20087;-76
2022/03/23 02:17:42;;;;;;;24.65;10.23;;;5.40;99.90;;;;;;5092162;28;20039;-76
2022/03/23 02:20:09;;;;;;;23.10;9.52;;;5.40;99.90;;;;;;5092372;28;20024;-76
2022/03/23 02:22:35;;;;;;;28.80;10.43;;;5.40;99.90;;;;;;5093366;28;20489;-76
2022/03/23 02:25:01;;;;;;;26.80;10.88;;;5.40;99.90;;;;;;5081924;28;20139;-76
2022/03/23 02:27:27;;;;;;;26.63;10.52;;;5.30;99.90;;;;;;5072033;28;20107;-76
2022/03/23 02:29:53;;;;;;;28.25;9.93;;;5.40;99.90;;;;;;5072231;28;20044;-76
2022/03/23 02:32:19;;;;;;;26.08;10.52;;;5.40;99.90;;;;;;5073567;28;20020;-76
2022/03/23 02:34:45;;;;;;;28.50;11.25;;;5.40;99.90;;;;;;5073653;28;20032;-76
2022/03/23 02:37:11;;;;;;;28.42;11.60;;;5.40;99.90;;;;;;5073736;28;20373;-76
2022/03/23 02:39:36;;;;;;;30.08;11.40;;;5.40;99.90;;;;;;5073266;28;20021;-76
2022/03/23 02:42:03;;;;;;;30.48;11.80;;;5.40;99.90;;;;;;5073419;28;20105;-76
2022/03/23 02:44:29;;;;;;;28.63;10.93;;;5.50;99.90;;;;;;5073250;28;20017;-76
2022/03/23 02:46:55;;;;;;;26.52;11.82;;;5.50;99.90;;;;;;5073394;28;20037;-76
2022/03/23 02:49:21;;;;;;;25.58;11.18;;;5.50;99.90;;;;;;5073101;28;20125;-76
2022/03/23 02:51:48;;;;;;;33.97;11.85;;;5.50;99.90;;;;;;5073360;28;20013;-76
2022/03/23 03:02:45;;;;;;;36.30;11.68;;;5.40;99.90;;;;;;5073760;28;20031;-75
2022/03/23 03:05:12;;;;;;;30.63;11.07;;;5.30;99.90;;;;;;5075348;28;20478;-75
2022/03/23 03:10:24;;;;;;;27.27;11.27;;;5.30;99.90;;;;;;5073636;28;20036;-74
2022/03/23 03:12:50;;;;;;;27.83;11.25;;;5.30;99.90;;;;;;5072889;28;20040;-74
2022/03/23 03:15:20;;;;;;;30.08;11.70;;;5.40;99.90;;;;;;5086157;28;20032;-74
2022/03/23 03:17:49;;;;;;;25.58;11.93;;;5.40;99.90;;;;;;5092798;28;20028;-74
2022/03/23 03:20:15;;;;;;;29.27;11.45;;;5.40;99.90;;;;;;5091682;28;20016;-74
2022/03/23 03:22:43;;;;;;;32.80;13.40;;;5.40;99.90;;;;;;5091704;28;20020;-74
2022/03/23 03:25:13;;;;;;;28.17;10.63;;;5.30;99.90;;;;;;5092297;28;20382;-74
2022/03/23 03:27:39;;;;;;;31.30;12.10;;;5.30;99.90;;;;;;5093479;28;20035;-74
2022/03/23 03:30:07;;;;;;;32.72;11.50;;;5.20;99.90;;;;;;5092943;28;20024;-75
2022/03/23 03:32:33;;;;;;;29.42;10.82;;;5.20;99.90;;;;;;5091687;28;20103;-75
2022/03/23 03:34:58;;;;;;;32.05;12.15;;;5.20;99.90;;;;;;5092257;28;20044;-75
2022/03/23 03:37:24;;;;;;;32.78;12.25;;;5.10;99.90;;;;;;5076566;28;20021;-75
2022/03/23 03:39:50;;;;;;;29.73;11.15;;;5.10;99.90;;;;;;5071263;28;20016;-75
2022/03/23 03:42:17;;;;;;;30.77;12.02;;;5.00;99.90;;;;;;5075904;28;20070;-75
2022/03/23 03:44:44;;;;;;;22.73;10.43;;;4.90;99.90;;;;;;5082308;28;20449;-77
2022/03/23 03:47:10;;;;;;;22.75;9.43;;;4.90;99.90;;;;;;5096710;28;20024;-77
2022/03/23 03:49:36;;;;;;;28.55;11.73;;;4.80;99.90;;;;;;5095241;28;20500;-77
2022/03/23 03:52:02;;;;;;;32.10;10.80;;;4.70;99.90;;;;;;5096946;28;20028;-77
2022/03/23 03:54:28;;;;;;;28.00;11.02;;;4.60;99.90;;;;;;5096752;28;20028;-76
2022/03/23 03:56:53;;;;;;;26.83;11.18;;;4.60;99.90;;;;;;5097329;28;20024;-77
2022/03/23 03:59:19;;;;;;;33.42;12.10;;;4.50;99.90;;;;;;5095643;28;20055;-77
2022/03/23 04:01:45;;;;;;;28.60;11.43;;;4.50;99.90;;;;;;5096479;28;20027;-77
2022/03/23 04:04:11;;;;;;;28.75;11.32;;;4.50;99.90;;;;;;5096556;28;20022;-76
2022/03/23 04:06:36;;;;;;;32.13;11.63;;;4.50;99.90;;;;;;5096101;28;20020;-75
2022/03/23 04:09:02;;;;;;;28.45;10.55;;;4.50;99.90;;;;;;5094475;28;20024;-75
2022/03/23 04:11:30;;;;;;;25.85;11.48;;;4.40;99.90;;;;;;5095859;28;20077;-77
2022/03/23 04:13:55;;;;;;;32.08;12.02;;;4.40;99.90;;;;;;5094834;28;20052;-77
2022/03/23 04:16:21;;;;;;;37.50;13.02;;;4.40;99.90;;;;;;5096024;28;20086;-77
2022/03/23 04:18:47;;;;;;;28.00;11.32;;;4.40;99.90;;;;;;5094495;28;20070;-75
2022/03/23 04:21:12;;;;;;;27.05;10.52;;;4.40;99.90;;;;;;5095688;28;20020;-77
2022/03/23 04:23:39;;;;;;;27.50;12.52;;;4.40;99.90;;;;;;5094418;28;20060;-75
2022/03/23 04:26:04;;;;;;;24.70;10.73;;;4.30;99.90;;;;;;5095670;28;20028;-75
2022/03/23 04:28:30;;;;;;;28.58;11.20;;;4.20;99.90;;;;;;5094292;28;20016;-77
2022/03/23 04:30:56;;;;;;;30.65;11.73;;;4.20;99.90;;;;;;5094401;28;20031;-76
2022/03/23 04:33:22;;;;;;;31.20;11.55;;;4.20;99.90;;;;;;5094219;28;20016;-75
2022/03/23 04:35:47;;;;;;;27.38;10.93;;;4.20;99.90;;;;;;5095862;28;20023;-75
2022/03/23 04:38:13;;;;;;;29.30;11.35;;;4.20;99.90;;;;;;5094088;28;20118;-75
2022/03/23 04:40:38;;;;;;;27.90;11.60;;;4.10;99.90;;;;;;5095384;28;20028;-77
2022/03/23 04:43:04;;;;;;;36.17;12.70;;;4.20;99.90;;;;;;5094283;28;20020;-76
2022/03/23 04:45:30;;;;;;;28.85;12.05;;;4.20;99.90;;;;;;5095506;28;20012;-76
2022/03/23 04:47:55;;;;;;;26.50;11.52;;;4.10;99.90;;;;;;5095673;28;20105;-77
2022/03/23 04:50:21;;;;;;;33.95;13.00;;;4.10;99.90;;;;;;5095090;28;20073;-77
2022/03/23 04:52:47;;;;;;;33.85;11.77;;;4.10;99.90;;;;;;5095294;28;20487;-78
2022/03/23 04:55:14;;;;;;;30.42;12.13;;;4.10;99.90;;;;;;5093873;28;20023;-75
2022/03/23 04:57:40;;;;;;;29.45;11.55;;;4.10;99.90;;;;;;5093978;28;20032;-77
2022/03/23 05:00:11;;;;;;;32.38;11.95;;;4.10;99.90;;;;;;5093804;28;20012;-76
2022/03/23 05:02:40;;;;;;;32.45;13.38;;;4.10;99.90;;;;;;5095462;28;20031;-76
2022/03/23 05:05:07;;;;;;;31.25;11.10;;;4.00;99.90;;;;;;5093722;28;20043;-77
2022/03/23 05:07:33;;;;;;;31.60;12.18;;;4.00;99.90;;;;;;5094910;28;20020;-75
2022/03/23 05:09:59;;;;;;;30.73;12.77;;;4.00;99.90;;;;;;5093524;28;20039;-77
2022/03/23 05:12:24;;;;;;;33.10;12.85;;;4.00;99.90;;;;;;5095386;28;20026;-76
2022/03/23 05:14:50;;;;;;;30.63;12.05;;;4.00;99.90;;;;;;5094889;28;20496;-75
2022/03/23 05:17:15;;;;;;;28.48;12.35;;;3.90;99.90;;;;;;5094410;28;20044;-76
2022/03/23 05:19:41;;;;;;;35.63;13.65;;;3.90;99.90;;;;;;5094507;28;20052;-77
2022/03/23 05:22:08;;;;;;;30.58;13.27;;;3.90;99.90;;;;;;5094760;28;20038;-76
2022/03/23 05:24:34;;;;;;;32.53;12.82;;;3.90;99.90;;;;;;5093237;28;20024;-77
2022/03/23 05:27:00;;;;;;;34.83;12.95;;;3.90;99.90;;;;;;5094491;28;20027;-76
2022/03/23 05:29:25;;;;;;;33.13;11.90;;;3.90;99.90;;;;;;5092985;28;20073;-76
2022/03/23 05:31:51;;;;;;;31.45;12.30;;;3.80;99.90;;;;;;5094296;28;20028;-76
2022/03/23 05:34:17;;;;;;;34.78;12.65;;;3.80;99.90;;;;;;5094556;28;20019;-76
2022/03/23 05:36:42;;;;;;;38.88;14.05;;;3.80;99.90;;;;;;5094642;28;20473;-76
2022/03/23 05:39:08;;;;;;;33.03;12.52;;;3.80;99.90;;;;;;5092923;28;20020;-76
2022/03/23 05:41:34;;;;;;;37.70;13.10;;;3.70;99.90;;;;;;5093209;28;20021;-76
2022/03/23 05:44:00;;;;;;;40.22;13.52;;;3.70;99.90;;;;;;5094816;28;20020;-76
2022/03/23 05:46:25;;;;;;;34.03;13.05;;;3.80;99.90;;;;;;5093330;28;20028;-76
2022/03/23 05:48:53;;;;;;;33.72;12.50;;;3.80;99.90;;;;;;5094184;28;20106;-77
2022/03/23 05:51:18;;;;;;;33.17;13.68;;;3.90;99.90;;;;;;5094036;28;20043;-77
2022/03/23 05:53:44;;;;;;;38.25;13.45;;;3.90;99.90;;;;;;5092694;28;20027;-75
2022/03/23 05:56:09;;;;;;;35.70;13.57;;;4.00;99.90;;;;;;5094101;28;20366;-76
2022/03/23 05:58:35;;;;;;;37.05;14.27;;;4.00;99.90;;;;;;5092911;28;20054;-76
2022/03/23 06:01:02;;;;;;;39.65;14.13;;;4.00;99.90;;;;;;5092835;28;20062;-75
2022/03/23 06:03:28;;;;;;;34.03;12.85;;;4.00;99.90;;;;;;5093349;28;20069;-75
2022/03/23 06:05:53;;;;;;;33.72;12.82;;;4.10;99.90;;;;;;5094138;28;20098;-75
2022/03/23 06:08:20;;;;;;;37.35;13.77;;;4.10;99.90;;;;;;5093810;28;20020;-75
2022/03/23 06:10:46;;;;;;;29.98;13.00;;;4.20;99.90;;;;;;5094268;28;20028;-76
2022/03/23 06:13:12;;;;;;;36.30;13.98;;;4.20;99.90;;;;;;5092657;28;20526;-76
2022/03/23 06:15:37;;;;;;;33.72;13.65;;;4.20;99.90;;;;;;5092487;28;20032;-75
2022/03/23 06:18:03;;;;;;;35.25;11.70;;;4.30;99.90;;;;;;5093898;28;20047;-77
2022/03/23 06:20:29;;;;;;;36.03;12.68;;;4.30;99.90;;;;;;5092433;28;20012;-76
2022/03/23 06:22:54;;;;;;;34.83;12.65;;;4.40;99.90;;;;;;5093600;28;20020;-77
2022/03/23 06:25:20;;;;;;;33.10;12.77;;;4.40;99.90;;;;;;5092243;28;20027;-77
2022/03/23 06:27:45;;;;;;;34.65;13.60;;;4.50;99.90;;;;;;5092343;28;20115;-77
2022/03/23 06:30:11;;;;;;;37.05;12.60;;;4.50;99.90;;;;;;5092106;28;20028;-77
2022/03/23 06:32:37;;;;;;;31.17;12.57;;;4.60;99.90;;;;;;5093825;28;20024;-76
2022/03/23 06:35:04;;;;;;;32.40;13.77;;;4.70;99.90;;;;;;5081414;28;20502;-72
2022/03/23 06:37:30;;;;;;;29.42;12.35;;;4.80;99.90;;;;;;5073225;28;20025;-72
2022/03/23 06:39:57;;;;;;;32.33;13.63;;;4.90;99.90;;;;;;5073104;28;20086;-73
2022/03/23 06:42:27;;;;;;;29.52;12.38;;;5.00;99.90;;;;;;5071966;28;20024;-73
2022/03/23 06:44:53;;;;;;;32.25;14.45;;;5.20;99.90;;;;;;5073181;28;20027;-73
2022/03/23 06:47:19;;;;;;;36.58;13.90;;;5.30;99.90;;;;;;5073096;28;20108;-73
2022/03/23 06:49:44;;;;;;;31.98;13.02;;;5.40;99.90;;;;;;5073216;28;20029;-73
2022/03/23 06:52:10;;;;;;;32.70;11.98;;;5.60;99.90;;;;;;5073069;28;20453;-73
2022/03/23 06:54:36;;;;;;;29.50;12.98;;;5.80;99.90;;;;;;5071864;28;20466;-73
2022/03/23 06:57:02;;;;;;;38.67;14.13;;;5.90;99.90;;;;;;5071636;28;20024;-73
2022/03/23 06:59:27;;;;;;;27.67;12.82;;;6.10;99.90;;;;;;5072919;28;20103;-73
2022/03/23 07:01:53;;;;;;;33.03;12.48;;;6.20;99.90;;;;;;5073002;28;20137;-73
2022/03/23 07:04:18;;;;;;;26.45;12.07;;;6.40;99.90;;;;;;5073081;28;20024;-74
2022/03/23 07:06:44;;;;;;;30.25;12.20;;;6.50;99.90;;;;;;5072885;28;20043;-73
2022/03/23 07:11:54;;;;;;;35.03;12.77;;;6.90;99.90;;;;;;5072870;28;20039;-73
2022/03/23 07:14:20;;;;;;;31.15;11.63;;;7.00;99.90;;;;;;5072952;28;20021;-73
2022/03/23 07:16:45;;;;;;;33.45;11.35;;;7.20;99.90;;;;;;5073758;28;20028;-73
2022/03/23 07:19:11;;;;;;;32.20;12.38;;;7.40;99.90;;;;;;5076689;28;20027;-73
2022/03/23 07:21:37;;;;;;;32.40;11.98;;;7.60;99.90;;;;;;5076876;28;20017;-73
2022/03/23 07:24:03;;;;;;;31.80;10.90;;;7.70;99.90;;;;;;5076465;28;20039;-73
2022/03/23 07:26:28;;;;;;;32.42;12.35;;;7.90;99.90;;;;;;5075232;28;20063;-73
2022/03/23 07:28:54;;;;;;;34.10;12.27;;;8.00;99.90;;;;;;5076454;28;20096;-73
2022/03/23 07:31:19;;;;;;;30.50;11.32;;;8.20;99.90;;;;;;5076333;28;20028;-73
2022/03/23 07:33:45;;;;;;;33.47;11.90;;;8.20;99.90;;;;;;5076251;28;20024;-73
2022/03/23 07:36:13;;;;;;;30.60;11.57;;;8.40;99.90;;;;;;5076284;28;20058;-73
2022/03/23 07:38:40;;;;;;;36.17;11.57;;;8.50;99.90;;;;;;5075062;28;20129;-73
2022/03/23 07:41:06;;;;;;;27.65;11.70;;;8.60;99.90;;;;;;5077093;28;20381;-73
2022/03/23 07:43:31;;;;;;;29.58;12.07;;;8.70;99.90;;;;;;5076248;28;20020;-73
2022/03/23 07:45:57;;;;;;;32.45;12.73;;;8.90;99.90;;;;;;5076325;28;20099;-74
2022/03/23 07:48:23;;;;;;;34.05;10.52;;;9.00;99.90;;;;;;5076106;28;20426;-73
2022/03/23 07:50:52;;;;;;;26.33;11.20;;;9.10;99.90;;;;;;5076335;28;20454;-74
2022/03/23 07:53:18;;;;;;;;;;;9.20;99.90;;;;;;5076266;28;20108;-73
2022/03/23 07:55:44;;;;;;;39.42;12.93;;;9.30;99.90;;;;;;5075988;28;19908;-73
2022/03/23 07:58:10;;;;;;;29.25;11.13;;;9.40;99.90;;;;;;5076174;28;20046;-73
2022/03/23 08:00:36;;;;;;;29.77;11.43;;;9.50;99.90;;;;;;5074569;28;20112;-74
2022/03/23 08:03:01;;;;;;;30.92;11.20;;;9.60;99.90;;;;;;5074526;28;20051;-74
2022/03/23 08:05:28;;;;;;;29.73;12.00;;;9.70;99.90;;;;;;5075783;28;20033;-73
2022/03/23 08:07:54;;;;;;;32.35;12.25;;;9.80;99.90;;;;;;5076302;28;20074;-73
2022/03/23 08:10:20;;;;;;;28.27;12.40;;;9.90;99.90;;;;;;5075938;28;20028;-73
2022/03/23 08:12:45;;;;;;;30.75;11.27;;;10.00;99.90;;;;;;5075660;28;20021;-73
2022/03/23 08:15:11;;;;;;;29.38;11.20;;;10.10;99.90;;;;;;5075902;28;20024;-73
2022/03/23 08:17:39;;;;;;;30.35;11.65;;;10.30;99.90;;;;;;5075351;28;20035;-73
2022/03/23 08:22:56;;;;;;;28.05;11.77;;;10.50;99.90;;;;;;5076223;28;20055;-72
2022/03/23 08:25:22;;;;;;;26.88;11.02;;;10.60;98.50;;;;;;5075452;28;20016;-72
2022/03/23 08:27:47;;;;;;;32.30;12.30;;;10.80;98.10;;;;;;5074844;28;20073;-73
2022/03/23 08:30:14;;;;;;;26.17;10.68;;;10.90;97.80;;;;;;5075201;28;20501;-73
2022/03/23 08:32:39;;;;;;;30.60;12.15;;;11.00;97.20;;;;;;5075310;28;20499;-73
2022/03/23 08:35:05;;;;;;;28.02;11.85;;;11.10;96.70;;;;;;5073861;28;20020;-73
2022/03/23 08:37:32;;;;;;;28.25;11.68;;;11.20;96.40;;;;;;5075015;28;20389;-74
2022/03/23 08:39:57;;;;;;;28.30;11.00;;;11.30;94.90;;;;;;5075041;28;20017;-73
2022/03/23 08:42:23;;;;;;;28.65;12.60;;;11.50;95.20;;;;;;5075024;28;20025;-73
2022/03/23 08:44:49;;;;;;;31.50;11.13;;;11.60;94.70;;;;;;5075084;28;20016;-73
2022/03/23 08:47:16;;;;;;;31.98;11.90;;;11.80;94.50;;;;;;5075245;28;20024;-73
2022/03/23 08:49:42;;;;;;;29.88;12.07;;;11.90;94.10;;;;;;5074744;28;20029;-75
2022/03/23 08:52:07;;;;;;;25.25;10.73;;;12.10;92.80;;;;;;5073607;28;20456;-77
2022/03/23 08:54:33;;;;;;;31.92;11.90;;;12.20;92.40;;;;;;5074732;28;20074;-76
2022/03/23 08:56:59;;;;;;;26.50;10.90;;;12.40;91.30;;;;;;5073257;28;20077;-77
2022/03/23 08:59:24;;;;;;;29.40;11.98;;;12.60;89.60;;;;;;5074707;28;20046;-77
2022/03/23 09:01:50;;;;;;;23.88;12.05;;;12.70;88.00;;;;;;5074897;28;20017;-76
2022/03/23 09:04:16;;;;;;;29.10;11.25;;;12.80;88.10;;;;;;5074519;28;20031;-77
2022/03/23 09:06:42;;;;;;;31.25;11.52;;;13.00;80.40;;;;;;5074547;28;20061;-76
2022/03/23 09:09:07;;;;;;;28.38;11.23;;;13.20;76.70;;;;;;5074444;28;20055;-77
2022/03/23 09:11:33;;;;;;;26.58;10.90;;;13.40;74.80;;;;;;5074747;28;20020;-77
2022/03/23 09:13:59;;;;;;;27.65;10.93;;;13.60;74.10;;;;;;5074537;28;20025;-77
2022/03/23 09:16:25;;;;;;;29.70;11.00;;;13.80;73.40;;;;;;5074056;28;20107;-77
2022/03/23 09:18:50;;;;;;;32.75;10.98;;;13.90;72.20;;;;;;5073997;28;20108;-76
2022/03/23 09:21:17;;;;;;;25.10;10.05;;;14.00;68.20;;;;;;5074862;28;20024;-77
2022/03/23 09:23:43;;;;;;;21.63;9.68;;;14.20;62.90;;;;;;5074207;28;20021;-76
2022/03/23 09:26:10;;;;;;;21.17;9.73;;;14.30;59.90;;;;;;5073286;28;20033;-77
2022/03/23 09:28:36;;;;;;;24.20;8.82;;;14.50;59.50;;;;;;5072744;28;20386;-77
2022/03/23 09:31:01;;;;;;;28.25;11.82;;;14.70;58.20;;;;;;5074268;28;20017;-77
2022/03/23 09:33:28;;;;;;;24.45;11.02;;;14.90;56.10;;;;;;5073926;28;20028;-76
2022/03/23 09:35:53;;;;;;;20.15;10.05;;;15.00;54.10;;;;;;5074053;28;20031;-77
2022/03/23 09:38:19;;;;;;;23.17;10.20;;;15.10;54.90;;;;;;5073491;28;20100;-77
2022/03/23 09:40:49;;;;;;;23.27;9.98;;;14.30;54.00;;;;;;5073803;28;20029;-76
2022/03/23 09:43:19;;;;;;;16.98;8.32;;;15.40;54.00;;;;;;5073876;28;20012;-76
2022/03/23 09:45:48;;;;;;;23.45;9.90;;;15.60;53.30;;;;;;5073703;28;20028;-78
2022/03/23 09:48:21;;;;;;;27.60;10.23;;;15.80;52.70;;;;;;5073629;28;20035;-76
2022/03/23 09:50:53;;;;;;;19.90;9.38;;;15.90;50.10;;;;;;5072463;28;20031;-76
2022/03/23 09:53:21;;;;;;;19.90;9.15;;;16.00;49.20;;;;;;5073628;28;20096;-76
2022/03/23 09:55:48;;;;;;;19.10;8.95;;;16.20;48.80;;;;;;5073501;28;20497;-76
2022/03/23 09:58:14;;;;;;;21.42;9.73;;;16.30;47.70;;;;;;5072082;28;20512;-76
2022/03/23 10:00:41;;;;;;;20.58;9.50;;;16.40;47.20;;;;;;5073786;28;20009;-76
2022/03/23 10:03:13;;;;;;;18.30;9.38;;;16.60;46.40;;;;;;5072222;28;20021;-76
2022/03/23 10:06:16;;;;;;;20.63;8.85;;;16.70;46.50;;;;;;5072205;28;20032;-76
2022/03/23 10:09:20;;;;;;;16.80;7.68;;;16.90;46.10;;;;;;5072106;28;20024;-77
2022/03/23 10:12:23;;;;;;;21.13;7.93;;;17.10;44.20;;;;;;5007174;28;20492;-76
2022/03/23 10:15:10;;;;;;;16.65;7.68;;;17.20;43.90;;;;;;5073459;28;20027;-76
2022/03/23 10:18:00;;;;;;;17.60;7.03;;;17.40;43.40;;;;;;5072952;28;20060;-76
2022/03/23 10:20:29;;;;;;;17.63;7.88;;;17.50;42.60;;;;;;5073180;28;20020;-76
2022/03/23 10:22:54;;;;;;;18.13;6.82;;;17.60;42.10;;;;;;5072071;28;20008;-76
2022/03/23 10:25:27;;;;;;;14.50;6.93;;;17.70;42.40;;;;;;5071924;28;20397;-76
2022/03/23 10:27:54;;;;;;;15.15;6.88;;;17.80;42.70;;;;;;5073267;28;20055;-77
2022/03/23 10:30:38;;;;;;;18.65;7.18;;;17.90;42.10;;;;;;5073378;28;20021;-77
2022/03/23 10:33:14;;;;;;;19.42;7.10;;;18.10;42.10;;;;;;5073218;28;20060;-76
2022/03/23 10:35:40;;;;;;;19.77;6.63;;;18.30;40.90;;;;;;5073489;28;20037;-76
2022/03/23 10:38:11;;;;;;;15.13;5.85;;;18.40;41.60;;;;;;5073034;28;20051;-76
2022/03/23 10:40:37;;;;;;;19.30;5.82;;;18.50;40.20;;;;;;5073138;28;20077;-77
2022/03/23 10:43:03;;;;;;;17.85;6.50;;;18.60;40.10;;;;;;5073382;28;20021;-76
2022/03/23 10:45:31;;;;;;;16.90;5.70;;;18.80;40.60;;;;;;5073260;28;20020;-76
2022/03/23 10:48:12;;;;;;;13.18;6.57;;;18.90;40.50;;;;;;5073281;28;20108;-76
2022/03/23 10:50:48;;;;;;;14.05;6.50;;;19.00;40.00;;;;;;5075613;28;20025;-76
2022/03/23 10:53:14;;;;;;;16.20;7.28;;;19.10;40.60;;;;;;5077068;28;20032;-76
2022/03/23 10:55:47;;;;;;;17.95;5.80;;;19.10;39.80;;;;;;5077203;28;20029;-76
2022/03/23 10:58:13;;;;;;;20.45;5.53;;;19.30;40.40;;;;;;5076859;28;20025;-77
2022/03/23 11:00:39;;;;;;;19.05;6.63;;;19.40;38.80;;;;;;5077002;28;20103;-76
2022/03/23 11:03:08;;;;;;;17.42;6.40;;;19.50;38.60;;;;;;5076962;28;20013;-76
2022/03/23 11:05:36;;;;;;;15.50;5.88;;;19.70;38.80;;;;;;5076774;28;20028;-76
2022/03/23 11:08:09;;;;;;;14.27;5.50;;;19.80;37.40;;;;;;5076749;28;20055;-76
2022/03/23 11:16:23;;;;;;;13.35;6.65;;;20.00;36.40;;;;;;5077293;28;20124;-76
2022/03/23 11:18:49;;;;;;;15.93;6.13;;;20.10;37.30;;;;;;5076364;28;20025;-76
2022/03/23 11:21:14;;;;;;;16.20;5.63;;;20.20;37.30;;;;;;5076508;28;20032;-76
2022/03/23 11:23:40;;;;;;;12.27;6.15;;;20.30;36.70;;;;;;5076792;28;20108;-77
2022/03/23 11:26:10;;;;;;;12.90;6.75;;;20.50;36.70;;;;;;5075186;28;20077;-76
2022/03/23 11:28:42;;;;;;;15.77;6.88;;;20.60;34.70;;;;;;5076607;28;20023;-77
2022/03/23 11:31:10;;;;;;;16.05;7.20;;;20.60;34.10;;;;;;5076315;28;20151;-76
2022/03/23 11:33:37;;;;;;;13.18;6.05;;;20.70;35.10;;;;;;5076571;28;20412;-76
2022/03/23 11:36:07;;;;;;;12.82;5.47;;;20.80;35.80;;;;;;5076991;28;20103;-75
2022/03/23 11:38:33;;;;;;;21.15;6.68;;;20.90;35.60;;;;;;5076846;28;20024;-76
2022/03/23 11:41:00;;;;;;;14.95;7.28;;;21.10;35.30;;;;;;5076587;28;20373;-76
2022/03/23 11:43:29;;;;;;;17.05;7.38;;;21.20;36.00;;;;;;5077142;28;20020;-76
2022/03/23 11:45:56;;;;;;;17.20;6.75;;;21.40;36.00;;;;;;5076414;28;20039;-77
2022/03/23 11:48:32;;;;;;;17.88;6.68;;;21.40;33.90;;;;;;5076161;28;20470;-77
2022/03/23 11:51:39;;;;;;;18.83;7.18;;;21.50;34.80;;;;;;5076850;28;20039;-75
2022/03/23 11:55:38;;;;;;;16.52;7.85;;;21.70;34.80;;;;;;5038861;28;20040;-76
2022/03/23 11:57:56;;;;;;;16.60;7.97;;;21.80;34.60;;;;;;5071884;28;20179;-76
2022/03/23 12:00:27;;;;;;;15.10;6.90;;;21.80;35.10;;;;;;5076722;28;20016;-76
2022/03/23 12:02:54;;;;;;;17.58;6.90;;;22.00;35.50;;;;;;5075576;28;20112;-76
2022/03/23 12:05:30;;;;;;;17.77;8.35;;;22.10;35.30;;;;;;5076230;28;20020;-76
2022/03/23 12:07:56;;;;;;;13.55;6.82;;;22.20;34.80;;;;;;5076371;28;20017;-76
2022/03/23 12:10:31;;;;;;;20.13;9.98;;;22.30;34.30;;;;;;5075633;28;20091;-77
2022/03/23 12:13:15;;;;;;;24.50;10.68;;;22.50;36.00;;;;;;5074400;28;20074;-76
2022/03/23 12:16:01;;;;;;;21.27;10.82;;;22.70;36.00;;;;;;5073913;28;20093;-76
2022/03/23 12:18:59;;;;;;;20.42;10.60;;;22.50;35.20;;;;;;5074161;28;20033;-76
2022/03/23 12:21:29;;;;;;;23.40;10.35;;;22.20;35.70;;;;;;5076167;28;20031;-76
2022/03/23 12:24:04;;;;;;;18.50;8.85;;;22.40;35.10;;;;;;5077164;28;20039;-76
2022/03/23 12:26:34;;;;;;;23.65;11.57;;;22.40;34.50;;;;;;5075085;28;20474;-76
2022/03/23 12:29:05;;;;;;;21.00;11.40;;;22.40;34.20;;;;;;5075760;28;20469;-76
2022/03/23 12:31:38;;;;;;;19.98;10.38;;;22.20;35.20;;;;;;5074019;28;20599;-77
2022/03/23 12:34:20;;;;;;;20.10;10.73;;;22.30;35.60;;;;;;5075293;28;20405;-76
2022/03/23 12:36:56;;;;;;;21.92;9.85;;;22.10;35.50;;;;;;5075503;28;20434;-77
2022/03/23 12:39:27;;;;;;;27.52;10.90;;;22.40;35.70;;;;;;5075126;28;20024;-76
2022/03/23 12:41:54;;;;;;;21.27;10.73;;;22.30;35.40;;;;;;5075432;28;20021;-77
2022/03/23 12:44:40;;;;;;;23.63;10.35;;;22.20;36.30;;;;;;5075456;28;20023;-77
2022/03/23 12:47:12;;;;;;;24.27;10.60;;;22.50;34.90;;;;;;5075263;28;20034;-76
2022/03/23 12:58:12;;;;;;;19.40;9.65;;;22.10;36.10;;;;;;5074674;28;20085;-76
2022/03/23 13:00:47;;;;;;;22.50;11.70;;;22.20;36.40;;;;;;5074859;28;20028;-76
2022/03/23 13:03:33;;;;;;;21.48;10.32;;;22.50;34.80;;;;;;5074538;28;20020;-76
2022/03/23 13:05:58;;;;;;;24.17;11.68;;;22.60;34.70;;;;;;5073230;28;20028;-77
2022/03/23 13:08:30;;;;;;;20.65;10.43;;;22.70;33.80;;;;;;5074320;28;20020;-76
2022/03/23 13:11:00;;;;;;;19.67;10.15;;;22.80;34.40;;;;;;5073351;28;20118;-76